createdAt,value
2024-02-07T00:00:57.672Z,15.52
2024-02-07T00:01:59.514Z,17.40
2024-02-07T00:03:01.185Z,16.13
2024-02-07T00:04:04.785Z,19.48
2024-02-07T00:05:06.835Z,23.38
2024-02-07T00:06:08.518Z,14.68
2024-02-07T00:07:10.201Z,16.88
2024-02-07T00:08:11.925Z,17.92
2024-02-07T00:09:13.496Z,19.63
2024-02-07T00:10:15.272Z,18.80
2024-02-07T00:11:16.867Z,19.42
2024-02-07T00:12:19.137Z,17.05
2024-02-07T00:13:20.758Z,18.98
2024-02-07T00:14:22.319Z,17.70
2024-02-07T00:15:23.898Z,20.08
2024-02-07T00:16:25.629Z,22.40
2024-02-07T00:17:27.240Z,17.55
2024-02-07T00:18:28.849Z,18.45
2024-02-07T00:19:30.612Z,15.02
2024-02-07T00:20:32.259Z,16.20
2024-02-07T00:21:33.976Z,20.58
2024-02-07T00:22:35.695Z,20.13
2024-02-07T00:23:37.338Z,20.55
2024-02-07T00:24:40.549Z,23.42
2024-02-07T00:25:42.951Z,25.33
2024-02-07T00:26:44.672Z,23.92
2024-02-07T00:27:47.402Z,19.65
2024-02-07T00:28:50.735Z,25.55
2024-02-07T00:29:52.391Z,25.15
2024-02-07T00:30:53.996Z,29.48
2024-02-07T00:31:55.642Z,27.98
2024-02-07T00:32:57.239Z,27.90
2024-02-07T00:33:58.947Z,30.48
2024-02-07T00:35:00.587Z,22.65
2024-02-07T00:36:02.450Z,23.77
2024-02-07T00:37:04.359Z,21.48
2024-02-07T00:38:05.948Z,20.75
2024-02-07T00:39:07.659Z,23.30
2024-02-07T00:40:12.529Z,22.05
2024-02-07T00:41:24.313Z,22.35
2024-02-07T00:42:26.227Z,19.55
2024-02-07T00:43:27.796Z,18.38
2024-02-07T00:44:29.409Z,21.13
2024-02-07T00:45:31.420Z,21.75
2024-02-07T00:46:33.521Z,23.35
2024-02-07T00:47:35.164Z,20.30
2024-02-07T00:48:36.752Z,19.95
2024-02-07T00:49:38.691Z,19.13
2024-02-07T00:50:40.305Z,22.48
2024-02-07T00:51:41.917Z,18.80
2024-02-07T00:52:43.618Z,30.33
2024-02-07T00:53:45.283Z,23.08
2024-02-07T00:54:46.871Z,21.70
2024-02-07T00:55:48.598Z,19.42
2024-02-07T00:56:50.704Z,14.32
2024-02-07T00:57:52.536Z,13.13
2024-02-07T00:58:54.201Z,14.52
2024-02-07T00:59:55.769Z,15.07
2024-02-07T01:00:57.962Z,13.93
2024-02-07T01:01:59.741Z,19.42
2024-02-07T01:03:01.514Z,16.88
2024-02-07T01:04:04.010Z,14.57
2024-02-07T01:05:06.235Z,14.13
2024-02-07T01:06:08.204Z,18.45
2024-02-07T01:07:10.068Z,14.10
2024-02-07T01:08:12.583Z,15.85
2024-02-07T01:09:14.308Z,14.43
2024-02-07T01:10:16.079Z,11.98
2024-02-07T01:11:17.804Z,14.60
2024-02-07T01:12:20.325Z,11.00
2024-02-07T01:13:21.970Z,12.93
2024-02-07T01:14:23.691Z,11.77
2024-02-07T01:15:25.566Z,11.73
2024-02-07T01:16:27.132Z,12.98
2024-02-07T01:17:28.849Z,15.65
2024-02-07T01:18:30.523Z,15.88
2024-02-07T01:19:32.132Z,18.60
2024-02-07T01:20:34.075Z,15.05
2024-02-07T01:21:36.257Z,14.23
2024-02-07T01:22:38.623Z,17.98
2024-02-07T01:23:44.757Z,18.98
2024-02-07T01:24:46.502Z,21.95
2024-02-07T01:25:48.392Z,24.27
2024-02-07T01:26:50.011Z,47.25
2024-02-07T01:27:51.586Z,47.70
2024-02-07T01:28:53.349Z,37.05
2024-02-07T01:29:56.494Z,26.85
2024-02-07T01:30:59.600Z,26.60
2024-02-07T01:32:01.207Z,22.40
2024-02-07T01:33:03.494Z,20.90
2024-02-07T01:34:05.242Z,22.45
2024-02-07T01:35:07.839Z,19.98
2024-02-07T01:36:09.763Z,20.17
2024-02-07T01:37:11.451Z,20.48
2024-02-07T01:38:19.070Z,20.85
2024-02-07T01:39:20.792Z,20.70
2024-02-07T01:40:25.111Z,26.80
2024-02-07T01:41:29.790Z,41.58
2024-02-07T01:42:33.399Z,30.73
2024-02-07T01:43:35.546Z,30.85
2024-02-07T01:44:39.129Z,23.95
2024-02-07T01:45:41.497Z,21.90
2024-02-07T01:46:43.304Z,23.00
2024-02-07T01:47:45.082Z,26.83
2024-02-07T01:48:47.970Z,23.33
2024-02-07T01:49:52.229Z,30.92
2024-02-07T01:50:55.742Z,28.75
2024-02-07T01:51:57.355Z,25.42
2024-02-07T01:53:01.476Z,24.10
2024-02-07T01:54:03.538Z,19.77
2024-02-07T01:55:05.232Z,22.42
2024-02-07T01:56:11.283Z,20.33
2024-02-07T01:57:14.354Z,21.63
2024-02-07T01:58:17.383Z,20.75
2024-02-07T01:59:20.209Z,19.83
2024-02-07T02:00:22.727Z,21.63
2024-02-07T02:01:24.541Z,22.98
2024-02-07T02:02:27.024Z,18.35
2024-02-07T02:03:28.834Z,20.73
2024-02-07T02:04:31.229Z,24.38
2024-02-07T02:05:32.898Z,19.00
2024-02-07T02:06:34.495Z,19.70
2024-02-07T02:07:36.218Z,16.70
2024-02-07T02:08:37.951Z,19.52
2024-02-07T02:09:40.472Z,21.00
2024-02-07T02:10:42.357Z,19.02
2024-02-07T02:11:47.193Z,18.20
2024-02-07T02:12:49.052Z,21.05
2024-02-07T02:13:52.529Z,20.83
2024-02-07T02:14:54.382Z,20.58
2024-02-07T02:15:56.615Z,17.30
2024-02-07T02:17:00.785Z,18.17
2024-02-07T02:18:03.860Z,18.65
2024-02-07T02:19:05.546Z,18.63
2024-02-07T02:20:09.050Z,19.92
2024-02-07T02:21:11.648Z,18.92
2024-02-07T02:22:37.688Z,19.95
2024-02-07T02:24:00.679Z,16.98
2024-02-07T02:25:28.957Z,18.13
2024-02-07T02:27:09.242Z,14.18
2024-02-07T02:28:30.814Z,15.40
2024-02-07T02:29:38.358Z,16.63
2024-02-07T02:30:51.877Z,17.35
2024-02-07T02:31:57.609Z,17.92
2024-02-07T02:33:10.370Z,17.33
2024-02-07T02:34:13.243Z,18.55
2024-02-07T02:35:18.217Z,20.10
2024-02-07T02:36:19.894Z,17.23
2024-02-07T02:37:22.930Z,14.50
2024-02-07T02:38:26.599Z,18.08
2024-02-07T02:39:31.095Z,18.33
2024-02-07T02:40:33.416Z,19.05
2024-02-07T02:41:35.099Z,17.88
2024-02-07T02:42:36.669Z,15.18
2024-02-07T02:43:38.709Z,17.95
2024-02-07T02:44:41.079Z,16.35
2024-02-07T02:45:42.837Z,15.63
2024-02-07T02:46:45.058Z,17.80
2024-02-07T02:47:46.842Z,17.60
2024-02-07T02:48:48.569Z,17.38
2024-02-07T02:49:50.308Z,23.33
2024-02-07T02:50:52.532Z,17.63
2024-02-07T02:51:54.137Z,16.65
2024-02-07T02:52:56.963Z,19.63
2024-02-07T02:53:58.534Z,14.35
2024-02-07T02:55:00.467Z,14.32
2024-02-07T02:56:06.657Z,13.57
2024-02-07T02:57:09.346Z,13.30
2024-02-07T02:58:12.743Z,14.88
2024-02-07T02:59:15.675Z,15.45
2024-02-07T03:00:21.793Z,14.88
2024-02-07T03:01:25.112Z,14.93
2024-02-07T03:02:27.487Z,10.80
2024-02-07T03:03:32.071Z,11.95
2024-02-07T03:04:36.308Z,12.20
2024-02-07T03:05:44.274Z,14.32
2024-02-07T03:07:14.450Z,13.75
2024-02-07T03:08:22.541Z,12.15
2024-02-07T03:09:27.871Z,14.23
2024-02-07T03:10:29.433Z,11.57
2024-02-07T03:11:31.021Z,12.80
2024-02-07T03:12:33.386Z,12.57
2024-02-07T03:13:35.563Z,13.40
2024-02-07T03:14:37.223Z,11.52
2024-02-07T03:15:38.959Z,14.18
2024-02-07T03:16:40.546Z,12.00
2024-02-07T03:17:43.735Z,13.65
2024-02-07T03:18:45.566Z,14.30
2024-02-07T03:19:47.603Z,12.30
2024-02-07T03:20:50.988Z,13.45
2024-02-07T03:21:52.599Z,13.57
2024-02-07T03:22:55.591Z,14.45
2024-02-07T03:23:57.470Z,10.55
2024-02-07T03:24:59.026Z,15.60
2024-02-07T03:26:02.294Z,10.18
2024-02-07T03:27:04.452Z,9.80
2024-02-07T03:28:06.282Z,13.77
2024-02-07T03:29:07.890Z,13.90
2024-02-07T03:30:09.769Z,12.95
2024-02-07T03:31:12.008Z,11.30
2024-02-07T03:32:13.719Z,11.30
2024-02-07T03:33:15.523Z,11.60
2024-02-07T03:34:17.945Z,14.45
2024-02-07T03:35:20.247Z,12.32
2024-02-07T03:36:23.155Z,11.98
2024-02-07T03:37:24.781Z,11.25
2024-02-07T03:38:26.446Z,12.70
2024-02-07T03:39:28.021Z,10.15
2024-02-07T03:40:29.654Z,11.98
2024-02-07T03:41:31.420Z,14.93
2024-02-07T03:42:33.866Z,10.85
2024-02-07T03:43:35.532Z,12.75
2024-02-07T03:44:40.040Z,13.60
2024-02-07T03:45:43.860Z,11.68
2024-02-07T03:46:45.770Z,14.32
2024-02-07T03:47:48.339Z,15.60
2024-02-07T03:48:49.989Z,14.27
2024-02-07T03:49:53.417Z,13.57
2024-02-07T03:50:55.065Z,13.68
2024-02-07T03:51:56.661Z,12.48
2024-02-07T03:52:58.367Z,11.52
2024-02-07T03:54:00.454Z,13.63
2024-02-07T03:55:02.337Z,14.70
2024-02-07T03:56:04.179Z,12.27
2024-02-07T03:57:06.024Z,10.52
2024-02-07T03:58:08.103Z,13.60
2024-02-07T03:59:09.751Z,10.95
2024-02-07T04:00:14.635Z,11.80
2024-02-07T04:01:19.617Z,13.73
2024-02-07T04:02:23.864Z,13.48
2024-02-07T04:03:25.471Z,10.13
2024-02-07T04:04:27.122Z,12.15
2024-02-07T04:05:29.394Z,14.20
2024-02-07T04:06:31.621Z,15.73
2024-02-07T04:07:34.493Z,16.65
2024-02-07T04:08:40.695Z,16.08
2024-02-07T04:09:43.043Z,14.05
2024-02-07T04:10:44.767Z,15.45
2024-02-07T04:11:46.566Z,13.27
2024-02-07T04:12:48.128Z,13.55
2024-02-07T04:13:49.725Z,14.23
2024-02-07T04:14:51.289Z,15.68
2024-02-07T04:16:11.526Z,13.10
2024-02-07T04:17:31.654Z,12.63
2024-02-07T04:18:51.755Z,14.80
2024-02-07T04:20:12.031Z,17.00
2024-02-07T04:21:43.986Z,13.40
2024-02-07T04:23:10.601Z,15.80
2024-02-07T04:24:30.430Z,12.00
2024-02-07T04:25:50.509Z,15.35
2024-02-07T04:27:15.792Z,14.35
2024-02-07T04:28:37.168Z,15.52
2024-02-07T04:29:57.249Z,18.15
2024-02-07T04:31:17.218Z,19.45
2024-02-07T04:32:37.272Z,24.73
2024-02-07T04:33:57.225Z,26.20
2024-02-07T04:35:17.492Z,27.00
2024-02-07T04:36:37.530Z,26.48
2024-02-07T04:37:57.536Z,17.83
2024-02-07T04:39:17.830Z,20.92
2024-02-07T04:40:38.873Z,22.85
2024-02-07T04:42:00.046Z,22.30
2024-02-07T04:43:20.461Z,19.42
2024-02-07T04:44:40.574Z,34.40
2024-02-07T04:46:00.950Z,29.02
2024-02-07T04:47:20.910Z,28.80
2024-02-07T04:48:41.014Z,27.73
2024-02-07T04:50:01.081Z,29.25
2024-02-07T04:51:21.231Z,27.55
2024-02-07T04:52:41.277Z,29.90
2024-02-07T04:54:01.268Z,27.63
2024-02-07T04:55:21.228Z,27.00
2024-02-07T04:56:41.272Z,27.42
2024-02-07T04:58:01.168Z,25.05
2024-02-07T04:59:24.188Z,22.27
2024-02-07T05:00:44.644Z,27.10
2024-02-07T05:02:07.646Z,22.65
2024-02-07T05:03:33.326Z,26.40
2024-02-07T05:04:53.275Z,25.08
2024-02-07T05:06:13.626Z,25.02
2024-02-07T05:07:34.088Z,28.85
2024-02-07T05:08:53.941Z,20.40
2024-02-07T05:10:14.499Z,21.98
2024-02-07T05:11:34.717Z,15.15
2024-02-07T05:12:54.742Z,16.00
2024-02-07T05:14:14.449Z,18.05
2024-02-07T05:15:15.937Z,17.52
2024-02-07T05:16:17.728Z,21.77
2024-02-07T05:17:22.102Z,21.95
2024-02-07T05:18:23.931Z,16.98
2024-02-07T05:19:25.700Z,18.08
2024-02-07T05:20:27.427Z,18.85
2024-02-07T05:21:29.013Z,18.27
2024-02-07T05:22:30.838Z,20.10
2024-02-07T05:23:32.451Z,18.30
2024-02-07T05:24:34.395Z,22.02
2024-02-07T05:25:36.176Z,17.88
2024-02-07T05:26:39.359Z,20.15
2024-02-07T05:27:40.909Z,23.10
2024-02-07T05:28:43.027Z,20.33
2024-02-07T05:29:45.371Z,20.38
2024-02-07T05:30:47.115Z,22.65
2024-02-07T05:31:51.580Z,23.45
2024-02-07T05:32:55.310Z,22.25
2024-02-07T05:33:57.009Z,23.10
2024-02-07T05:34:58.808Z,19.15
2024-02-07T05:36:00.702Z,27.38
2024-02-07T05:37:03.465Z,20.70
2024-02-07T05:38:05.140Z,23.25
2024-02-07T05:39:06.878Z,20.50
2024-02-07T05:40:08.997Z,18.15
2024-02-07T05:41:10.575Z,21.73
2024-02-07T05:42:12.167Z,21.02
2024-02-07T05:43:14.012Z,20.38
2024-02-07T05:44:16.331Z,20.50
2024-02-07T05:45:18.041Z,22.13
2024-02-07T05:46:20.834Z,20.15
2024-02-07T05:47:22.415Z,18.80
2024-02-07T05:48:24.014Z,23.65
2024-02-07T05:49:26.892Z,25.73
2024-02-07T05:50:29.197Z,24.60
2024-02-07T05:51:30.844Z,26.27
2024-02-07T05:52:32.490Z,28.45
2024-02-07T05:53:34.069Z,23.60
2024-02-07T05:54:35.702Z,22.52
2024-02-07T05:55:37.430Z,24.95
2024-02-07T05:56:39.173Z,27.52
2024-02-07T05:57:41.257Z,26.77
2024-02-07T05:58:43.064Z,27.83
2024-02-07T05:59:44.813Z,25.58
2024-02-07T06:00:46.620Z,24.25
2024-02-07T06:01:51.111Z,24.83
2024-02-07T06:02:52.723Z,26.85
2024-02-07T06:03:54.914Z,23.55
2024-02-07T06:04:58.616Z,23.25
2024-02-07T06:06:00.363Z,24.85
2024-02-07T06:07:02.450Z,27.08
2024-02-07T06:08:05.398Z,32.17
2024-02-07T06:09:08.077Z,31.88
2024-02-07T06:10:10.656Z,35.22
2024-02-07T06:11:12.427Z,32.70
2024-02-07T06:12:14.071Z,29.67
2024-02-07T06:13:15.666Z,29.73
2024-02-07T06:14:17.295Z,26.65
2024-02-07T06:15:18.978Z,26.85
2024-02-07T06:16:21.086Z,25.58
2024-02-07T06:17:22.855Z,23.38
2024-02-07T06:18:24.401Z,23.70
2024-02-07T06:19:26.044Z,24.73
2024-02-07T06:20:28.232Z,22.33
2024-02-07T06:21:29.917Z,22.42
2024-02-07T06:22:31.499Z,24.42
2024-02-07T06:23:33.076Z,24.50
2024-02-07T06:24:34.746Z,28.02
2024-02-07T06:25:36.420Z,29.20
2024-02-07T06:26:37.985Z,24.13
2024-02-07T06:27:39.563Z,22.95
2024-02-07T06:28:41.246Z,22.02
2024-02-07T06:29:43.682Z,20.13
2024-02-07T06:30:45.695Z,24.67
2024-02-07T06:31:47.277Z,19.48
2024-02-07T06:32:48.874Z,19.90
2024-02-07T06:33:51.110Z,22.60
2024-02-07T06:34:52.887Z,23.42
2024-02-07T06:35:54.502Z,26.35
2024-02-07T06:36:56.073Z,25.27
2024-02-07T06:37:57.730Z,26.35
2024-02-07T06:38:59.561Z,24.00
2024-02-07T06:40:01.332Z,21.75
2024-02-07T06:41:03.093Z,26.05
2024-02-07T06:42:05.165Z,25.42
2024-02-07T06:43:06.856Z,23.55
2024-02-07T06:44:08.487Z,26.05
2024-02-07T06:45:10.368Z,21.80
2024-02-07T06:46:12.025Z,25.92
2024-02-07T06:47:13.862Z,23.05
2024-02-07T06:48:16.040Z,16.85
2024-02-07T06:49:17.995Z,17.10
2024-02-07T06:50:20.574Z,15.05
2024-02-07T06:51:22.517Z,14.35
2024-02-07T06:52:24.096Z,16.33
2024-02-07T06:53:25.750Z,17.10
2024-02-07T06:54:28.238Z,22.42
2024-02-07T06:55:29.912Z,18.50
2024-02-07T06:56:33.348Z,18.65
2024-02-07T06:57:36.003Z,14.50
2024-02-07T06:58:37.616Z,13.65
2024-02-07T06:59:39.186Z,16.42
2024-02-07T07:00:41.127Z,15.55
2024-02-07T07:01:43.380Z,12.93
2024-02-07T07:02:49.993Z,15.18
2024-02-07T07:03:58.524Z,13.27
2024-02-07T07:05:00.200Z,13.50
2024-02-07T07:06:02.195Z,15.38
2024-02-07T07:07:04.013Z,18.13
2024-02-07T07:08:07.848Z,13.48
2024-02-07T07:09:09.835Z,13.60
2024-02-07T07:10:11.556Z,12.68
2024-02-07T07:11:13.214Z,16.15
2024-02-07T07:12:14.851Z,14.73
2024-02-07T07:13:16.545Z,13.93
2024-02-07T07:14:18.282Z,18.50
2024-02-07T07:15:29.980Z,15.23
2024-02-07T07:16:34.808Z,15.00
2024-02-07T07:17:36.441Z,15.98
2024-02-07T07:18:38.040Z,15.85
2024-02-07T07:19:40.784Z,15.35
2024-02-07T07:20:42.445Z,16.70
2024-02-07T07:21:43.975Z,17.60
2024-02-07T07:22:53.118Z,14.77
2024-02-07T07:24:00.693Z,15.57
2024-02-07T07:25:02.266Z,15.82
2024-02-07T07:26:04.337Z,13.18
2024-02-07T07:27:06.556Z,15.57
2024-02-07T07:28:08.375Z,14.45
2024-02-07T07:29:12.093Z,16.88
2024-02-07T07:30:14.060Z,13.27
2024-02-07T07:31:15.712Z,16.20
2024-02-07T07:32:17.357Z,13.48
2024-02-07T07:33:19.022Z,14.93
2024-02-07T07:34:20.805Z,18.27
2024-02-07T07:35:22.546Z,14.63
2024-02-07T07:36:28.262Z,14.63
2024-02-07T07:37:30.048Z,15.10
2024-02-07T07:38:31.699Z,16.95
2024-02-07T07:39:33.309Z,15.45
2024-02-07T07:40:35.995Z,13.07
2024-02-07T07:41:40.609Z,15.45
2024-02-07T07:42:43.151Z,12.85
2024-02-07T07:43:44.917Z,15.10
2024-02-07T07:44:46.544Z,15.38
2024-02-07T07:45:48.085Z,19.40
2024-02-07T07:46:49.774Z,20.60
2024-02-07T07:47:51.955Z,18.70
2024-02-07T07:48:53.815Z,24.27
2024-02-07T07:49:55.538Z,17.45
2024-02-07T07:50:57.131Z,18.08
2024-02-07T07:51:58.714Z,19.70
2024-02-07T07:53:00.392Z,20.23
2024-02-07T07:54:02.030Z,22.30
2024-02-07T07:55:03.941Z,22.45
2024-02-07T07:56:07.376Z,19.17
2024-02-07T07:57:09.054Z,20.50
2024-02-07T07:58:10.599Z,18.20
2024-02-07T07:59:13.789Z,20.85
2024-02-07T08:00:15.920Z,21.10
2024-02-07T08:01:23.787Z,18.67
2024-02-07T08:02:27.892Z,20.10
2024-02-07T08:03:29.517Z,17.10
2024-02-07T08:04:31.172Z,18.67
2024-02-07T08:05:33.451Z,19.35
2024-02-07T08:06:36.065Z,17.02
2024-02-07T08:07:37.789Z,18.30
2024-02-07T08:08:39.665Z,19.55
2024-02-07T08:09:43.028Z,23.40
2024-02-07T08:10:47.884Z,18.10
2024-02-07T08:11:50.114Z,17.50
2024-02-07T08:12:51.748Z,17.30
2024-02-07T08:13:53.368Z,16.58
2024-02-07T08:14:55.190Z,16.65
2024-02-07T08:15:56.773Z,18.92
2024-02-07T08:16:58.463Z,17.67
2024-02-07T08:18:00.207Z,20.20
2024-02-07T08:19:01.850Z,16.02
2024-02-07T08:20:04.315Z,19.25
2024-02-07T08:21:06.786Z,24.90
2024-02-07T08:22:08.460Z,17.48
2024-02-07T08:23:10.091Z,18.70
2024-02-07T08:24:11.666Z,12.27
2024-02-07T08:25:14.396Z,18.33
2024-02-07T08:26:16.033Z,12.80
2024-02-07T08:27:17.593Z,13.27
2024-02-07T08:28:19.334Z,11.95
2024-02-07T08:29:20.912Z,11.45
2024-02-07T08:30:22.602Z,11.18
2024-02-07T08:31:24.230Z,13.50
2024-02-07T08:32:25.939Z,14.65
2024-02-07T08:33:27.659Z,13.20
2024-02-07T08:34:29.654Z,16.30
2024-02-07T08:35:31.657Z,11.45
2024-02-07T08:36:33.706Z,13.20
2024-02-07T08:37:35.462Z,12.65
2024-02-07T08:38:37.149Z,12.15
2024-02-07T08:39:38.736Z,9.77
2024-02-07T08:40:40.363Z,14.27
2024-02-07T08:41:42.336Z,14.63
2024-02-07T08:42:45.560Z,13.98
2024-02-07T08:43:48.003Z,10.05
2024-02-07T08:44:49.599Z,13.55
2024-02-07T08:45:51.270Z,15.63
2024-02-07T08:46:52.924Z,12.00
2024-02-07T08:47:54.767Z,12.90
2024-02-07T08:48:56.454Z,13.70
2024-02-07T08:49:58.636Z,12.48
2024-02-07T08:51:00.327Z,14.10
2024-02-07T08:52:01.904Z,11.80
2024-02-07T08:53:03.870Z,15.80
2024-02-07T08:54:05.677Z,15.15
2024-02-07T08:55:10.985Z,14.60
2024-02-07T08:56:12.646Z,11.45
2024-02-07T08:57:14.708Z,20.95
2024-02-07T08:58:16.316Z,29.15
2024-02-07T08:59:17.985Z,29.35
2024-02-07T09:00:19.762Z,30.58
2024-02-07T09:01:21.910Z,30.90
2024-02-07T09:02:23.709Z,34.08
2024-02-07T09:03:25.399Z,31.77
2024-02-07T09:04:27.057Z,34.03
2024-02-07T09:05:28.845Z,29.85
2024-02-07T09:06:30.679Z,27.42
2024-02-07T09:07:32.910Z,25.80
2024-02-07T09:08:34.735Z,27.10
2024-02-07T09:09:36.516Z,25.73
2024-02-07T09:10:38.116Z,26.00
2024-02-07T09:11:39.728Z,27.45
2024-02-07T09:12:41.684Z,23.48
2024-02-07T09:13:43.318Z,26.17
2024-02-07T09:14:44.940Z,29.17
2024-02-07T09:15:46.552Z,29.90
2024-02-07T09:16:48.224Z,30.23
2024-02-07T09:17:49.997Z,33.75
2024-02-07T09:18:53.501Z,29.88
2024-02-07T09:19:55.228Z,30.48
2024-02-07T09:20:56.861Z,26.13
2024-02-07T09:21:58.576Z,26.42
2024-02-07T09:23:00.334Z,25.20
2024-02-07T09:24:01.979Z,30.40
2024-02-07T09:25:03.838Z,27.75
2024-02-07T09:26:05.987Z,29.85
2024-02-07T09:27:08.011Z,28.33
2024-02-07T09:28:09.556Z,31.10
2024-02-07T09:29:11.203Z,26.65
2024-02-07T09:30:14.328Z,27.98
2024-02-07T09:31:16.326Z,28.88
2024-02-07T09:32:19.645Z,26.48
2024-02-07T09:33:21.456Z,27.33
2024-02-07T09:34:23.482Z,25.45
2024-02-07T09:35:25.688Z,32.63
2024-02-07T09:36:28.412Z,32.45
2024-02-07T09:37:30.080Z,25.95
2024-02-07T09:38:32.337Z,23.63
2024-02-07T09:39:33.967Z,27.20
2024-02-07T09:40:35.607Z,27.77
2024-02-07T09:41:42.599Z,23.85
2024-02-07T09:42:45.341Z,25.40
2024-02-07T09:43:49.219Z,21.15
2024-02-07T09:44:52.339Z,23.02
2024-02-07T09:46:00.790Z,27.98
2024-02-07T09:47:03.300Z,24.75
2024-02-07T09:48:21.752Z,18.42
2024-02-07T09:49:25.971Z,23.80
2024-02-07T09:50:27.897Z,23.50
2024-02-07T09:51:30.425Z,21.77
2024-02-07T09:52:33.124Z,20.67
2024-02-07T09:53:36.976Z,20.45
2024-02-07T09:54:39.135Z,19.92
2024-02-07T09:55:42.080Z,23.85
2024-02-07T09:56:44.916Z,21.25
2024-02-07T09:57:48.327Z,24.48
2024-02-07T09:58:50.231Z,21.95
2024-02-07T09:59:53.679Z,23.58
2024-02-07T10:00:55.897Z,21.63
2024-02-07T10:01:57.694Z,22.15
2024-02-07T10:02:59.547Z,13.98
2024-02-07T10:04:02.674Z,13.63
2024-02-07T10:05:07.410Z,18.80
2024-02-07T10:06:10.832Z,14.85
2024-02-07T10:07:14.171Z,16.60
2024-02-07T10:08:16.246Z,15.40
2024-02-07T10:09:18.478Z,15.10
2024-02-07T10:10:21.195Z,16.42
2024-02-07T10:11:23.838Z,18.55
2024-02-07T10:12:25.570Z,26.88
2024-02-07T10:13:28.257Z,15.10
2024-02-07T10:14:32.184Z,14.90
2024-02-07T10:15:34.066Z,18.65
2024-02-07T10:16:35.672Z,16.45
2024-02-07T10:17:37.289Z,15.27
2024-02-07T10:18:38.944Z,21.35
2024-02-07T10:19:41.094Z,14.32
2024-02-07T10:20:55.998Z,19.13
2024-02-07T10:21:58.941Z,19.08
2024-02-07T10:23:00.537Z,11.10
2024-02-07T10:24:06.335Z,15.05
2024-02-07T10:25:15.663Z,15.55
2024-02-07T10:26:24.659Z,13.27
2024-02-07T10:27:26.288Z,11.80
2024-02-07T10:28:28.348Z,11.30
2024-02-07T10:29:30.014Z,11.82
2024-02-07T10:30:32.035Z,11.75
2024-02-07T10:31:33.729Z,13.32
2024-02-07T10:32:39.997Z,9.00
2024-02-07T10:33:43.260Z,10.18
2024-02-07T10:34:57.177Z,9.60
2024-02-07T10:36:02.927Z,12.63
2024-02-07T10:37:04.911Z,11.80
2024-02-07T10:38:06.498Z,15.27
2024-02-07T10:39:10.301Z,12.30
2024-02-07T10:40:12.953Z,15.57
2024-02-07T10:41:14.918Z,19.48
2024-02-07T10:42:16.905Z,19.40
2024-02-07T10:43:25.041Z,17.50
2024-02-07T10:44:26.673Z,19.20
2024-02-07T10:45:28.235Z,19.05
2024-02-07T10:46:29.891Z,18.65
2024-02-07T10:47:33.589Z,18.25
2024-02-07T10:48:35.912Z,17.75
2024-02-07T10:49:37.869Z,22.85
2024-02-07T10:50:39.928Z,18.05
2024-02-07T10:51:42.223Z,22.95
2024-02-07T10:52:44.398Z,17.90
2024-02-07T10:53:46.044Z,19.38
2024-02-07T10:54:47.726Z,17.50
2024-02-07T10:55:50.786Z,20.15
2024-02-07T10:56:57.662Z,20.27
2024-02-07T10:58:00.533Z,20.45
2024-02-07T10:59:02.897Z,19.30
2024-02-07T11:00:06.557Z,18.02
2024-02-07T11:01:08.961Z,17.50
2024-02-07T11:02:16.771Z,20.55
2024-02-07T11:03:19.299Z,17.80
2024-02-07T11:04:21.569Z,27.88
2024-02-07T11:05:25.664Z,21.40
2024-02-07T11:06:28.752Z,22.63
2024-02-07T11:07:31.464Z,23.60
2024-02-07T11:08:33.906Z,16.95
2024-02-07T11:09:37.568Z,19.25
2024-02-07T11:10:40.842Z,15.80
2024-02-07T11:11:43.198Z,18.70
2024-02-07T11:12:45.085Z,15.75
2024-02-07T11:13:47.156Z,21.08
2024-02-07T11:14:51.481Z,19.60
2024-02-07T11:15:53.197Z,17.90
2024-02-07T11:16:54.899Z,20.30
2024-02-07T11:17:56.708Z,17.17
2024-02-07T11:18:59.610Z,24.38
2024-02-07T11:20:03.013Z,16.23
2024-02-07T11:21:06.910Z,16.33
2024-02-07T11:22:15.228Z,17.63
2024-02-07T11:23:23.368Z,18.52
2024-02-07T11:24:25.350Z,15.90
2024-02-07T11:25:28.599Z,22.30
2024-02-07T11:26:31.132Z,16.50
2024-02-07T11:27:32.794Z,16.67
2024-02-07T11:28:34.688Z,15.55
2024-02-07T11:29:36.616Z,19.48
2024-02-07T11:30:38.315Z,21.52
2024-02-07T11:31:42.125Z,16.30
2024-02-07T11:32:43.927Z,14.73
2024-02-07T11:33:53.158Z,17.67
2024-02-07T11:34:55.188Z,19.27
2024-02-07T11:36:17.335Z,16.70
2024-02-07T11:37:19.692Z,13.13
2024-02-07T11:38:21.425Z,19.98
2024-02-07T11:39:23.765Z,14.27
2024-02-07T11:40:28.232Z,12.48
2024-02-07T11:41:30.042Z,15.23
2024-02-07T11:42:37.027Z,12.27
2024-02-07T11:43:38.753Z,14.40
2024-02-07T11:44:54.560Z,16.13
2024-02-07T11:46:20.304Z,16.67
2024-02-07T11:47:31.282Z,13.52
2024-02-07T11:48:41.847Z,17.38
2024-02-07T11:49:43.471Z,17.65
2024-02-07T11:50:47.032Z,15.32
2024-02-07T11:52:00.824Z,15.57
2024-02-07T11:53:03.513Z,22.75
2024-02-07T11:54:08.874Z,19.10
2024-02-07T11:55:12.421Z,13.90
2024-02-07T11:56:19.567Z,26.67
2024-02-07T11:57:22.812Z,14.82
2024-02-07T11:58:25.837Z,14.73
2024-02-07T11:59:28.466Z,17.20
2024-02-07T12:00:31.590Z,11.98
2024-02-07T12:01:33.470Z,13.77
2024-02-07T12:02:38.068Z,14.40
2024-02-07T12:03:42.873Z,17.25
2024-02-07T12:04:46.015Z,12.20
2024-02-07T12:05:48.117Z,14.52
2024-02-07T12:06:51.358Z,16.65
2024-02-07T12:07:55.788Z,10.93
2024-02-07T12:08:57.853Z,15.38
2024-02-07T12:09:59.529Z,17.17
2024-02-07T12:11:01.249Z,12.88
2024-02-07T12:12:03.068Z,15.05
2024-02-07T12:13:04.702Z,17.05
2024-02-07T12:14:06.390Z,12.30
2024-02-07T12:15:08.616Z,9.85
2024-02-07T12:16:11.627Z,13.35
2024-02-07T12:17:13.815Z,15.35
2024-02-07T12:18:15.457Z,20.13
2024-02-07T12:19:17.380Z,15.45
2024-02-07T12:20:20.018Z,12.65
2024-02-07T12:21:25.965Z,19.00
2024-02-07T12:22:36.722Z,17.27
2024-02-07T12:23:39.100Z,11.93
2024-02-07T12:24:42.341Z,16.48
2024-02-07T12:25:44.016Z,16.08
2024-02-07T12:26:45.604Z,12.95
2024-02-07T12:27:47.377Z,13.63
2024-02-07T12:28:55.912Z,10.13
2024-02-07T12:29:58.783Z,10.98
2024-02-07T12:31:01.283Z,13.45
2024-02-07T12:32:03.321Z,11.02
2024-02-07T12:33:05.598Z,14.25
2024-02-07T12:34:10.898Z,14.10
2024-02-07T12:35:13.274Z,16.15
2024-02-07T12:36:15.023Z,16.30
2024-02-07T12:37:18.407Z,19.08
2024-02-07T12:38:21.002Z,15.68
2024-02-07T12:39:22.720Z,20.27
2024-02-07T12:40:24.287Z,20.52
2024-02-07T12:41:26.068Z,17.50
2024-02-07T12:42:27.661Z,19.30
2024-02-07T12:43:30.183Z,17.15
2024-02-07T12:44:33.289Z,16.83
2024-02-07T12:45:34.863Z,12.90
2024-02-07T12:46:36.587Z,20.52
2024-02-07T12:47:38.328Z,16.02
2024-02-07T12:48:40.233Z,15.20
2024-02-07T12:49:43.156Z,22.45
2024-02-07T12:50:45.527Z,18.95
2024-02-07T12:51:47.531Z,15.02
2024-02-07T12:52:49.261Z,15.52
2024-02-07T12:53:51.055Z,14.55
2024-02-07T12:54:52.781Z,10.85
2024-02-07T12:55:54.661Z,12.65
2024-02-07T12:56:56.814Z,21.88
2024-02-07T12:58:05.384Z,17.15
2024-02-07T12:59:07.044Z,12.20
2024-02-07T13:00:11.521Z,18.92
2024-02-07T13:01:14.379Z,20.13
2024-02-07T13:02:16.250Z,12.80
2024-02-07T13:03:17.896Z,11.18
2024-02-07T13:04:19.555Z,12.82
2024-02-07T13:05:21.610Z,10.48
2024-02-07T13:06:24.100Z,41.90
2024-02-07T13:07:27.265Z,28.60
2024-02-07T13:08:29.155Z,8.15
2024-02-07T13:09:30.719Z,10.20
2024-02-07T13:10:32.419Z,11.85
2024-02-07T13:11:34.504Z,18.67
2024-02-07T13:12:37.037Z,12.60
2024-02-07T13:13:38.688Z,16.85
2024-02-07T13:14:40.348Z,14.38
2024-02-07T13:15:42.341Z,13.63
2024-02-07T13:16:45.681Z,11.45
2024-02-07T13:17:50.600Z,7.72
2024-02-07T13:18:54.544Z,11.73
2024-02-07T13:19:56.443Z,15.73
2024-02-07T13:21:03.080Z,17.67
2024-02-07T13:22:04.803Z,19.50
2024-02-07T13:23:06.553Z,15.02
2024-02-07T13:24:17.808Z,17.02
2024-02-07T13:25:19.696Z,21.27
2024-02-07T13:26:23.487Z,10.43
2024-02-07T13:27:25.108Z,10.95
2024-02-07T13:28:26.990Z,10.48
2024-02-07T13:29:28.662Z,11.50
2024-02-07T13:30:30.324Z,12.80
2024-02-07T13:31:31.997Z,12.70
2024-02-07T13:32:34.177Z,17.00
2024-02-07T13:33:35.871Z,18.77
2024-02-07T13:34:38.401Z,11.80
2024-02-07T13:35:40.189Z,12.82
2024-02-07T13:36:42.310Z,15.20
2024-02-07T13:37:44.211Z,9.98
2024-02-07T13:38:45.931Z,17.17
2024-02-07T13:39:47.626Z,12.13
2024-02-07T13:40:49.493Z,11.57
2024-02-07T13:41:51.101Z,7.28
2024-02-07T13:42:53.662Z,11.52
2024-02-07T13:43:55.374Z,11.15